sensor_id;sensor_type;location;lat;lon;timestamp;pressure;altitude;pressure_sealevel;temperature;humidity
38253;BME280;24785;52.372;20.672;2023-04-07T00:03:20;100424.69;;;2.62;100.00
38253;BME280;24785;52.372;20.672;2023-04-07T00:13:21;100405.06;;;2.70;100.00
38253;BME280;24785;52.372;20.672;2023-04-07T00:23:22;100395.88;;;2.72;100.00
38253;BME280;24785;52.372;20.672;2023-04-07T00:33:23;100387.78;;;2.86;100.00
38253;BME280;24785;52.372;20.672;2023-04-07T00:43:24;100371.59;;;2.94;100.00
38253;BME280;24785;52.372;20.672;2023-04-07T00:53:25;100363.31;;;3.02;100.00
38253;BME280;24785;52.372;20.672;2023-04-07T01:03:32;100345.94;;;3.06;100.00
38253;BME280;24785;52.372;20.672;2023-04-07T01:23:51;100321.47;;;3.22;100.00
38253;BME280;24785;52.372;20.672;2023-04-07T01:34:02;100321.13;;;3.30;100.00
38253;BME280;24785;52.372;20.672;2023-04-07T01:44:03;100315.75;;;3.37;100.00
38253;BME280;24785;52.372;20.672;2023-04-07T01:54:06;100298.81;;;3.38;100.00
38253;BME280;24785;52.372;20.672;2023-04-07T02:14:12;100298.81;;;3.61;100.00
38253;BME280;24785;52.372;20.672;2023-04-07T02:24:18;100292.94;;;3.71;100.00
38253;BME280;24785;52.372;20.672;2023-04-07T02:34:20;100288.94;;;3.80;100.00
38253;BME280;24785;52.372;20.672;2023-04-07T02:44:21;100282.13;;;3.84;100.00
38253;BME280;24785;52.372;20.672;2023-04-07T02:54:22;100281.06;;;3.97;100.00
38253;BME280;24785;52.372;20.672;2023-04-07T03:04:22;100310.69;;;4.05;100.00
38253;BME280;24785;52.372;20.672;2023-04-07T03:14:23;100314.56;;;4.15;100.00
38253;BME280;24785;52.372;20.672;2023-04-07T03:24:24;100312.81;;;4.20;100.00
38253;BME280;24785;52.372;20.672;2023-04-07T03:34:25;100315.38;;;4.27;100.00
38253;BME280;24785;52.372;20.672;2023-04-07T03:44:26;100309.94;;;4.33;100.00
38253;BME280;24785;52.372;20.672;2023-04-07T03:54:27;100293.78;;;4.35;100.00
38253;BME280;24785;52.372;20.672;2023-04-07T04:04:28;100308.06;;;4.46;100.00
38253;BME280;24785;52.372;20.672;2023-04-07T04:14:28;100312.06;;;4.48;100.00
38253;BME280;24785;52.372;20.672;2023-04-07T04:24:30;100317.00;;;4.56;100.00
38253;BME280;24785;52.372;20.672;2023-04-07T04:34:31;100321.94;;;4.64;100.00
38253;BME280;24785;52.372;20.672;2023-04-07T04:44:31;100322.59;;;4.71;100.00
38253;BME280;24785;52.372;20.672;2023-04-07T04:54:32;100328.94;;;4.82;100.00
38253;BME280;24785;52.372;20.672;2023-04-07T05:04:33;100326.13;;;4.89;100.00
38253;BME280;24785;52.372;20.672;2023-04-07T05:14:34;100315.34;;;4.95;100.00
38253;BME280;24785;52.372;20.672;2023-04-07T05:24:35;100336.38;;;5.14;100.00
38253;BME280;24785;52.372;20.672;2023-04-07T05:34:36;100356.47;;;5.21;100.00
38253;BME280;24785;52.372;20.672;2023-04-07T05:44:37;100349.22;;;5.33;100.00
38253;BME280;24785;52.372;20.672;2023-04-07T05:54:38;100362.66;;;5.44;100.00
38253;BME280;24785;52.372;20.672;2023-04-07T06:04:40;100369.19;;;5.53;100.00
38253;BME280;24785;52.372;20.672;2023-04-07T06:14:41;100384.97;;;5.59;100.00
38253;BME280;24785;52.372;20.672;2023-04-07T06:24:42;100391.66;;;5.62;100.00
38253;BME280;24785;52.372;20.672;2023-04-07T06:34:43;100389.88;;;5.67;100.00
38253;BME280;24785;52.372;20.672;2023-04-07T06:44:43;100405.72;;;5.74;100.00
38253;BME280;24785;52.372;20.672;2023-04-07T06:54:45;100400.78;;;5.99;100.00
38253;BME280;24785;52.372;20.672;2023-04-07T07:04:46;100407.06;;;6.27;100.00
38253;BME280;24785;52.372;20.672;2023-04-07T07:14:46;100426.03;;;6.52;100.00
38253;BME280;24785;52.372;20.672;2023-04-07T07:24:47;100460.19;;;6.77;100.00
38253;BME280;24785;52.372;20.672;2023-04-07T07:34:48;100485.38;;;6.91;100.00
38253;BME280;24785;52.372;20.672;2023-04-07T07:44:49;100522.72;;;7.13;100.00
38253;BME280;24785;52.372;20.672;2023-04-07T07:54:50;100540.00;;;7.33;100.00
38253;BME280;24785;52.372;20.672;2023-04-07T08:04:51;100550.00;;;7.47;100.00
38253;BME280;24785;52.372;20.672;2023-04-07T08:14:52;100550.97;;;7.58;100.00
38253;BME280;24785;52.372;20.672;2023-04-07T08:24:53;100568.75;;;7.52;100.00
38253;BME280;24785;52.372;20.672;2023-04-07T08:34:55;100569.44;;;7.43;100.00
38253;BME280;24785;52.372;20.672;2023-04-07T08:44:57;100558.09;;;7.31;100.00
38253;BME280;24785;52.372;20.672;2023-04-07T08:54:58;100541.53;;;7.29;100.00
38253;BME280;24785;52.372;20.672;2023-04-07T09:05:04;100509.50;;;7.23;100.00
38253;BME280;24785;52.372;20.672;2023-04-07T09:15:06;100514.06;;;7.77;100.00
38253;BME280;24785;52.372;20.672;2023-04-07T09:25:16;100520.75;;;8.38;100.00
38253;BME280;24785;52.372;20.672;2023-04-07T09:35:17;100553.53;;;8.66;100.00
38253;BME280;24785;52.372;20.672;2023-04-07T09:45:25;100584.00;;;8.70;100.00
38253;BME280;24785;52.372;20.672;2023-04-07T09:55:27;100593.41;;;8.77;100.00
38253;BME280;24785;52.372;20.672;2023-04-07T10:05:28;100594.78;;;9.27;100.00
38253;BME280;24785;52.372;20.672;2023-04-07T10:15:29;100610.94;;;9.48;100.00
38253;BME280;24785;52.372;20.672;2023-04-07T10:25:30;100607.38;;;10.20;100.00
38253;BME280;24785;52.372;20.672;2023-04-07T10:36:01;100617.81;;;10.06;100.00
38253;BME280;24785;52.372;20.672;2023-04-07T10:46:02;100626.13;;;10.15;100.00
38253;BME280;24785;52.372;20.672;2023-04-07T10:56:03;100623.69;;;10.13;100.00
38253;BME280;24785;52.372;20.672;2023-04-07T11:06:06;100639.06;;;10.43;100.00
38253;BME280;24785;52.372;20.672;2023-04-07T11:16:08;100646.53;;;10.71;100.00
38253;BME280;24785;52.372;20.672;2023-04-07T11:26:11;100646.25;;;11.03;100.00
38253;BME280;24785;52.372;20.672;2023-04-07T11:36:13;100648.13;;;10.88;100.00
38253;BME280;24785;52.372;20.672;2023-04-07T11:46:16;100648.13;;;10.83;100.00
38253;BME280;24785;52.372;20.672;2023-04-07T11:56:17;100645.22;;;10.64;100.00
38253;BME280;24785;52.372;20.672;2023-04-07T12:06:34;100644.69;;;10.57;100.00
38253;BME280;24785;52.372;20.672;2023-04-07T12:16:38;100646.56;;;10.51;100.00
38253;BME280;24785;52.372;20.672;2023-04-07T12:26:40;100646.78;;;10.39;100.00
38253;BME280;24785;52.372;20.672;2023-04-07T12:36:41;100650.03;;;10.62;100.00
38253;BME280;24785;52.372;20.672;2023-04-07T12:46:42;100659.16;;;10.61;100.00
38253;BME280;24785;52.372;20.672;2023-04-07T12:56:43;100663.16;;;10.58;100.00
38253;BME280;24785;52.372;20.672;2023-04-07T13:06:44;100668.28;;;10.90;100.00
38253;BME280;24785;52.372;20.672;2023-04-07T13:16:44;100681.13;;;10.83;100.00
38253;BME280;24785;52.372;20.672;2023-04-07T13:26:45;100673.31;;;10.31;100.00
38253;BME280;24785;52.372;20.672;2023-04-07T13:36:46;100679.03;;;9.87;100.00
38253;BME280;24785;52.372;20.672;2023-04-07T13:46:47;100675.47;;;9.61;100.00
38253;BME280;24785;52.372;20.672;2023-04-07T13:56:48;100677.84;;;9.53;100.00
38253;BME280;24785;52.372;20.672;2023-04-07T14:06:50;100667.81;;;9.90;100.00
38253;BME280;24785;52.372;20.672;2023-04-07T14:16:51;100680.59;;;10.51;100.00
38253;BME280;24785;52.372;20.672;2023-04-07T14:26:52;100690.50;;;10.86;100.00
38253;BME280;24785;52.372;20.672;2023-04-07T14:36:55;100710.91;;;10.92;100.00
38253;BME280;24785;52.372;20.672;2023-04-07T14:46:56;100722.66;;;10.76;100.00
38253;BME280;24785;52.372;20.672;2023-04-07T14:56:57;100733.94;;;10.78;100.00
38253;BME280;24785;52.372;20.672;2023-04-07T15:06:58;100737.94;;;10.60;100.00
38253;BME280;24785;52.372;20.672;2023-04-07T15:16:59;100752.91;;;10.40;100.00
38253;BME280;24785;52.372;20.672;2023-04-07T15:27:00;100758.19;;;10.20;100.00
38253;BME280;24785;52.372;20.672;2023-04-07T15:37:01;100786.25;;;10.18;100.00
38253;BME280;24785;52.372;20.672;2023-04-07T15:47:01;100791.47;;;9.87;100.00
38253;BME280;24785;52.372;20.672;2023-04-07T15:57:02;100810.72;;;9.84;100.00
38253;BME280;24785;52.372;20.672;2023-04-07T16:07:03;100810.06;;;9.67;100.00
38253;BME280;24785;52.372;20.672;2023-04-07T16:17:04;100823.34;;;9.52;100.00
38253;BME280;24785;52.372;20.672;2023-04-07T16:27:05;100831.16;;;9.26;100.00
38253;BME280;24785;52.372;20.672;2023-04-07T16:37:06;100853.22;;;9.11;100.00
38253;BME280;24785;52.372;20.672;2023-04-07T16:47:07;100859.66;;;8.89;100.00
38253;BME280;24785;52.372;20.672;2023-04-07T16:57:08;100884.81;;;8.66;100.00
38253;BME280;24785;52.372;20.672;2023-04-07T17:07:10;100897.25;;;8.38;100.00
38253;BME280;24785;52.372;20.672;2023-04-07T17:17:11;100907.91;;;8.16;100.00
38253;BME280;24785;52.372;20.672;2023-04-07T17:27:12;100922.63;;;7.85;100.00
38253;BME280;24785;52.372;20.672;2023-04-07T17:37:13;100943.50;;;7.88;100.00
38253;BME280;24785;52.372;20.672;2023-04-07T17:47:14;100955.53;;;7.91;100.00
38253;BME280;24785;52.372;20.672;2023-04-07T17:57:17;100970.56;;;7.80;100.00
38253;BME280;24785;52.372;20.672;2023-04-07T18:07:18;100983.84;;;7.75;100.00
38253;BME280;24785;52.372;20.672;2023-04-07T18:17:19;101006.63;;;7.66;100.00
38253;BME280;24785;52.372;20.672;2023-04-07T18:27:20;101016.91;;;7.46;100.00
38253;BME280;24785;52.372;20.672;2023-04-07T18:37:24;101029.19;;;7.18;100.00
38253;BME280;24785;52.372;20.672;2023-04-07T18:47:26;101045.75;;;7.09;100.00
38253;BME280;24785;52.372;20.672;2023-04-07T18:57:30;101055.59;;;7.08;100.00
38253;BME280;24785;52.372;20.672;2023-04-07T19:07:31;101072.19;;;6.87;100.00
38253;BME280;24785;52.372;20.672;2023-04-07T19:17:32;101073.59;;;6.78;100.00
38253;BME280;24785;52.372;20.672;2023-04-07T19:27:35;101088.06;;;6.93;100.00
38253;BME280;24785;52.372;20.672;2023-04-07T19:37:37;101091.97;;;7.03;100.00
38253;BME280;24785;52.372;20.672;2023-04-07T19:47:40;101100.56;;;7.05;100.00
38253;BME280;24785;52.372;20.672;2023-04-07T19:57:41;101114.69;;;7.05;100.00
38253;BME280;24785;52.372;20.672;2023-04-07T20:07:42;101136.72;;;7.01;100.00
38253;BME280;24785;52.372;20.672;2023-04-07T20:17:44;101143.03;;;6.53;100.00
38253;BME280;24785;52.372;20.672;2023-04-07T20:27:47;101156.28;;;5.99;100.00
38253;BME280;24785;52.372;20.672;2023-04-07T20:37:49;101167.53;;;5.83;100.00
38253;BME280;24785;52.372;20.672;2023-04-07T20:47:50;101177.53;;;5.69;100.00
38253;BME280;24785;52.372;20.672;2023-04-07T20:57:51;101193.25;;;5.53;100.00
38253;BME280;24785;52.372;20.672;2023-04-07T21:07:53;101200.25;;;5.47;100.00
38253;BME280;24785;52.372;20.672;2023-04-07T21:17:54;101202.16;;;5.58;100.00
38253;BME280;24785;52.372;20.672;2023-04-07T21:27:55;101222.78;;;5.45;100.00
38253;BME280;24785;52.372;20.672;2023-04-07T21:37:56;101223.22;;;5.42;100.00
38253;BME280;24785;52.372;20.672;2023-04-07T21:47:57;101234.34;;;5.32;100.00
38253;BME280;24785;52.372;20.672;2023-04-07T21:57:58;101241.41;;;4.95;100.00
38253;BME280;24785;52.372;20.672;2023-04-07T22:07:59;101251.75;;;4.71;100.00
38253;BME280;24785;52.372;20.672;2023-04-07T22:18:00;101254.09;;;4.61;100.00
38253;BME280;24785;52.372;20.672;2023-04-07T22:28:01;101256.69;;;4.68;100.00
38253;BME280;24785;52.372;20.672;2023-04-07T22:38:02;101266.31;;;4.62;100.00
38253;BME280;24785;52.372;20.672;2023-04-07T22:48:03;101262.78;;;4.75;100.00
38253;BME280;24785;52.372;20.672;2023-04-07T22:58:04;101277.06;;;4.81;100.00
38253;BME280;24785;52.372;20.672;2023-04-07T23:08:05;101281.50;;;4.87;100.00
38253;BME280;24785;52.372;20.672;2023-04-07T23:18:07;101271.66;;;4.94;100.00
38253;BME280;24785;52.372;20.672;2023-04-07T23:28:07;101269.38;;;4.97;100.00
38253;BME280;24785;52.372;20.672;2023-04-07T23:38:08;101288.59;;;4.93;100.00
38253;BME280;24785;52.372;20.672;2023-04-07T23:48:10;101285.75;;;4.94;100.00
38253;BME280;24785;52.372;20.672;2023-04-07T23:58:11;101282.16;;;4.44;100.00
